Blissfield, Michigan
Current Conditions -  °F | °C
As of 12:53 AM on Friday 31 Oct 2014 (Local Time) from KADG Reporting Station
Overcast Overcast  
Wind Chill: 43°   Ceiling: 10000
Heat Index: 43°   Visibility: 10mi
Dew Point: 36°   Wind: 3mph
Humidity: 76%   Direction: 250°WSW
Pressure: 30.01"   Gusts: NA
Location:  41.83°N, 83.86°W
Report Text: KADG 310453Z AUTO 25003KT 10SM FEW050 FEW080 OVC100 06/02 A3001 RMK AO2 SLP169 T00610022 400941006
Loading
Personal Weather Stations






























Interactive Weather Map
Tropical Storm Tracking
New forecast layout! Learn more

10-Day Weather Forecast

Advertisements
Track Severe Weather on mobile